createdAt,value
2022-08-11T00:01:56.522Z,21.50
2022-08-11T00:04:25.384Z,21.50
2022-08-11T00:06:53.474Z,21.40
2022-08-11T00:09:31.148Z,21.50
2022-08-11T00:11:59.094Z,21.60
2022-08-11T00:14:37.370Z,21.60
2022-08-11T00:17:06.489Z,21.70
2022-08-11T00:20:12.076Z,21.50
2022-08-11T00:22:27.317Z,21.30
2022-08-11T00:24:58.510Z,21.20
2022-08-11T00:27:35.925Z,21.10
2022-08-11T00:30:04.355Z,21.30
2022-08-11T00:32:31.729Z,21.40
2022-08-11T00:35:54.281Z,21.60
2022-08-11T00:37:50.497Z,21.70
2022-08-11T00:40:28.215Z,21.40
2022-08-11T00:43:26.489Z,21.40
2022-08-11T00:46:26.828Z,21.30
2022-08-11T00:49:02.447Z,21.30
2022-08-11T00:52:03.734Z,21.30
2022-08-11T00:54:38.602Z,21.40
2022-08-11T00:57:36.629Z,21.10
2022-08-11T01:00:24.164Z,21.10
2022-08-11T01:03:18.157Z,21.00
2022-08-11T01:06:09.997Z,21.00
2022-08-11T01:09:22.161Z,21.10
2022-08-11T01:12:51.061Z,21.00
2022-08-11T01:15:56.012Z,20.80
2022-08-11T01:18:28.476Z,20.90
2022-08-11T01:21:10.509Z,20.80
2022-08-11T01:23:58.816Z,20.80
2022-08-11T01:26:44.034Z,20.70
2022-08-11T01:29:22.785Z,20.70
2022-08-11T01:32:23.189Z,20.70
2022-08-11T01:35:02.013Z,20.80
2022-08-11T01:37:40.924Z,20.80
2022-08-11T01:40:23.229Z,20.90
2022-08-11T01:43:33.356Z,20.70
2022-08-11T01:46:30.805Z,20.90
2022-08-11T01:49:29.047Z,21.00
2022-08-11T01:52:13.079Z,21.00
2022-08-11T01:55:05.977Z,20.80
2022-08-11T01:57:48.503Z,21.10
2022-08-11T02:00:21.111Z,20.80
2022-08-11T02:03:21.757Z,20.90
2022-08-11T02:06:01.509Z,21.00
2022-08-11T02:08:50.715Z,20.80
2022-08-11T02:11:31.618Z,20.60
2022-08-11T02:14:26.360Z,20.90
2022-08-11T02:17:11.146Z,20.90
2022-08-11T02:20:08.639Z,21.00
2022-08-11T02:23:58.644Z,20.90
2022-08-11T02:26:23.175Z,20.70
2022-08-11T02:29:10.447Z,20.30
2022-08-11T02:32:25.652Z,20.10
2022-08-11T02:34:59.531Z,20.20
2022-08-11T02:37:38.955Z,20.30
2022-08-11T02:40:20.926Z,20.40
2022-08-11T02:43:18.915Z,20.20
2022-08-11T02:46:01.238Z,20.10
2022-08-11T02:49:12.065Z,20.00
2022-08-11T02:51:59.910Z,20.40
2022-08-11T02:54:53.729Z,20.30
2022-08-11T02:57:47.393Z,20.20
2022-08-11T03:00:17.411Z,20.30
2022-08-11T03:03:02.703Z,20.20
2022-08-11T03:05:51.213Z,20.30
2022-08-11T03:08:32.541Z,20.30
2022-08-11T03:11:31.126Z,20.30
2022-08-11T03:14:40.597Z,20.40
2022-08-11T03:17:24.042Z,20.40
2022-08-11T03:20:15.319Z,20.20
2022-08-11T03:23:06.341Z,19.90
2022-08-11T03:25:51.337Z,19.50
2022-08-11T03:28:29.271Z,19.30
2022-08-11T03:31:24.821Z,19.60
2022-08-11T03:34:07.557Z,19.60
2022-08-11T03:37:16.148Z,19.50
2022-08-11T03:40:06.569Z,19.60
2022-08-11T03:43:01.138Z,19.30
2022-08-11T03:45:44.725Z,19.30
2022-08-11T03:48:27.379Z,19.70
2022-08-11T03:50:55.949Z,19.70
2022-08-11T03:54:00.201Z,19.50
2022-08-11T03:56:51.701Z,19.30
2022-08-11T03:59:28.725Z,19.20
2022-08-11T04:02:32.700Z,19.30
2022-08-11T04:05:32.526Z,19.00
2022-08-11T04:08:44.551Z,19.00
2022-08-11T04:11:11.334Z,18.60
2022-08-11T04:14:16.926Z,18.90
2022-08-11T04:17:38.326Z,18.90
2022-08-11T04:20:37.667Z,18.80
2022-08-11T04:24:36.771Z,18.70
2022-08-11T04:26:45.678Z,18.60
2022-08-11T04:29:36.467Z,19.30
2022-08-11T04:32:55.293Z,19.40
2022-08-11T04:35:24.934Z,19.80
2022-08-11T04:38:16.184Z,19.60
2022-08-11T04:41:20.734Z,19.60
2022-08-11T04:44:26.399Z,19.70
2022-08-11T04:47:11.637Z,19.50
2022-08-11T04:50:03.102Z,19.60
2022-08-11T04:53:16.636Z,19.50
2022-08-11T04:56:14.118Z,19.40
2022-08-11T04:59:30.075Z,19.40
2022-08-11T05:02:35.555Z,19.50
2022-08-11T05:05:33.325Z,19.50
2022-08-11T05:08:03.582Z,19.90
2022-08-11T05:11:02.417Z,19.80
2022-08-11T05:14:04.785Z,19.90
2022-08-11T05:16:59.886Z,19.60
2022-08-11T05:19:45.749Z,19.60
2022-08-11T05:22:32.700Z,19.70
2022-08-11T05:26:43.961Z,19.90
2022-08-11T05:28:45.501Z,20.10
2022-08-11T05:31:34.069Z,19.90
2022-08-11T05:34:35.534Z,19.90
2022-08-11T05:37:36.579Z,20.00
2022-08-11T05:40:33.177Z,20.00
2022-08-11T05:43:21.063Z,19.90
2022-08-11T05:46:25.075Z,19.90
2022-08-11T05:49:11.325Z,20.00
2022-08-11T05:52:05.810Z,20.20
2022-08-11T05:55:00.076Z,20.20
2022-08-11T05:57:48.650Z,20.50
2022-08-11T06:00:19.467Z,20.50
2022-08-11T06:02:51.150Z,20.10
2022-08-11T06:05:33.046Z,20.00
2022-08-11T06:08:10.506Z,20.20
2022-08-11T06:10:40.695Z,20.70
2022-08-11T06:13:08.630Z,20.40
2022-08-11T06:15:49.121Z,20.30
2022-08-11T06:18:17.210Z,20.50
2022-08-11T06:21:08.535Z,20.00
2022-08-11T06:23:36.312Z,20.40
2022-08-11T06:26:09.497Z,20.50
2022-08-11T06:28:39.511Z,20.10
2022-08-11T06:31:33.171Z,20.20
2022-08-11T06:34:08.976Z,20.40
2022-08-11T06:36:39.429Z,20.40
2022-08-11T06:39:24.467Z,20.40
2022-08-11T06:41:56.894Z,20.40
2022-08-11T06:44:54.436Z,20.20
2022-08-11T06:47:22.038Z,20.60
2022-08-11T06:50:07.335Z,20.80
2022-08-11T06:52:36.713Z,20.90
2022-08-11T06:55:55.707Z,20.90
2022-08-11T06:58:52.195Z,21.00
2022-08-11T07:01:46.328Z,21.20
2022-08-11T07:04:23.907Z,21.10
2022-08-11T07:07:35.187Z,21.20
2022-08-11T07:10:39.068Z,21.20
2022-08-11T07:13:44.184Z,21.80
2022-08-11T07:16:16.186Z,21.80
2022-08-11T07:19:02.150Z,21.80
2022-08-11T07:22:01.823Z,21.70
2022-08-11T07:25:03.463Z,21.80
2022-08-11T07:28:01.876Z,22.20
2022-08-11T07:30:30.023Z,22.00
2022-08-11T07:33:00.610Z,21.80
2022-08-11T07:35:45.837Z,21.60
2022-08-11T07:38:22.918Z,21.80
2022-08-11T07:40:52.474Z,22.00
2022-08-11T07:43:19.897Z,21.70
2022-08-11T07:46:06.197Z,21.90
2022-08-11T07:48:53.563Z,22.00
2022-08-11T07:51:39.917Z,22.10
2022-08-11T07:54:07.740Z,22.20
2022-08-11T07:56:55.106Z,22.20
2022-08-11T08:00:00.674Z,22.20
2022-08-11T08:03:02.275Z,22.40
2022-08-11T08:05:49.137Z,22.50
2022-08-11T08:08:35.773Z,22.60
2022-08-11T08:11:27.064Z,22.40
2022-08-11T08:14:13.989Z,22.60
2022-08-11T08:16:59.925Z,22.60
2022-08-11T08:19:27.733Z,22.90
2022-08-11T08:21:55.099Z,22.50
2022-08-11T08:24:34.890Z,22.70
2022-08-11T08:27:03.103Z,22.70
2022-08-11T08:29:53.114Z,23.00
2022-08-11T08:32:21.796Z,23.10
2022-08-11T08:34:54.996Z,23.10
2022-08-11T08:37:45.849Z,23.30
2022-08-11T08:40:13.155Z,23.20
2022-08-11T08:42:46.308Z,23.40
2022-08-11T08:45:20.779Z,23.60
2022-08-11T08:47:58.823Z,23.60
2022-08-11T08:50:54.878Z,23.50
2022-08-11T08:53:29.631Z,23.60
2022-08-11T08:55:59.784Z,23.70
2022-08-11T08:58:27.732Z,23.90
2022-08-11T09:00:56.552Z,24.00
2022-08-11T09:03:41.900Z,24.00
2022-08-11T09:06:11.368Z,24.20
2022-08-11T09:08:40.892Z,24.40
2022-08-11T09:11:26.950Z,24.50
2022-08-11T09:14:06.491Z,24.70
2022-08-11T09:16:39.286Z,24.60
2022-08-11T09:19:08.084Z,25.00
2022-08-11T09:21:44.584Z,25.20
2022-08-11T09:24:37.089Z,25.20
2022-08-11T09:27:08.507Z,25.00
2022-08-11T09:29:38.222Z,24.80
2022-08-11T09:32:08.345Z,24.90
2022-08-11T09:34:37.441Z,24.90
2022-08-11T09:37:29.026Z,24.70
2022-08-11T09:40:33.443Z,24.50
2022-08-11T09:43:23.923Z,24.30
2022-08-11T09:45:53.017Z,24.20
2022-08-11T09:48:21.868Z,24.20
2022-08-11T09:50:51.608Z,24.80
2022-08-11T09:53:38.158Z,25.20
2022-08-11T09:56:30.664Z,25.20
2022-08-11T09:58:58.708Z,25.10
2022-08-11T10:01:30.713Z,25.10
2022-08-11T10:04:03.875Z,25.60
2022-08-11T10:06:53.931Z,25.80
2022-08-11T10:09:25.275Z,25.90
2022-08-11T10:11:58.688Z,26.10
2022-08-11T10:14:46.832Z,26.20
2022-08-11T10:17:15.977Z,26.10
2022-08-11T10:20:01.963Z,26.20
2022-08-11T10:22:51.961Z,26.00
2022-08-11T10:25:39.078Z,25.60
2022-08-11T10:28:33.015Z,25.40
2022-08-11T10:31:16.393Z,25.40
2022-08-11T10:34:00.828Z,25.50
2022-08-11T10:36:31.656Z,25.40
2022-08-11T10:39:01.213Z,25.60
2022-08-11T10:42:06.100Z,25.80
2022-08-11T10:44:47.606Z,25.60
2022-08-11T10:47:34.497Z,25.30
2022-08-11T10:50:28.340Z,25.50
2022-08-11T10:53:16.383Z,25.60
2022-08-11T10:58:45.575Z,25.60
2022-08-11T11:01:14.668Z,25.90
2022-08-11T11:03:42.615Z,25.90
2022-08-11T11:06:29.228Z,26.00
2022-08-11T11:09:05.145Z,26.10
2022-08-11T11:11:57.326Z,25.80
2022-08-11T11:14:49.808Z,26.20
2022-08-11T11:17:53.607Z,26.30
2022-08-11T11:20:36.712Z,26.40
2022-08-11T11:23:09.183Z,26.10
2022-08-11T11:26:27.521Z,25.90
2022-08-11T11:29:27.103Z,25.90
2022-08-11T11:32:12.512Z,25.80
2022-08-11T11:35:04.436Z,25.70
2022-08-11T11:37:36.898Z,25.70
2022-08-11T11:40:16.585Z,25.80
2022-08-11T11:42:45.815Z,25.80
2022-08-11T11:45:22.593Z,26.20
2022-08-11T11:47:53.997Z,26.60
2022-08-11T11:50:32.761Z,27.00
2022-08-11T11:53:03.684Z,27.50
2022-08-11T11:55:31.949Z,27.60
2022-08-11T11:58:20.051Z,27.10
2022-08-11T12:01:09.275Z,26.60
2022-08-11T12:03:37.937Z,26.80
2022-08-11T12:06:06.899Z,26.60
2022-08-11T12:08:35.736Z,26.60
2022-08-11T12:11:24.385Z,26.30
2022-08-11T12:13:53.525Z,26.20
2022-08-11T12:16:32.774Z,26.10
2022-08-11T12:19:07.028Z,26.20
2022-08-11T12:21:37.024Z,26.10
2022-08-11T12:24:28.521Z,26.10
2022-08-11T12:27:18.213Z,26.20
2022-08-11T12:29:55.330Z,26.20
2022-08-11T12:32:25.961Z,26.30
2022-08-11T12:34:53.918Z,26.60
2022-08-11T12:37:30.119Z,27.10
2022-08-11T12:40:43.804Z,27.30
2022-08-11T12:43:38.178Z,27.50
2022-08-11T12:46:14.228Z,27.70
2022-08-11T12:49:09.237Z,27.80
2022-08-11T12:52:11.287Z,27.70
2022-08-11T12:55:00.618Z,27.70
2022-08-11T12:57:48.799Z,28.10
2022-08-11T13:00:36.175Z,27.70
2022-08-11T13:03:24.048Z,27.60
2022-08-11T13:05:54.249Z,27.50
2022-08-11T13:08:24.895Z,27.70
2022-08-11T13:11:12.579Z,28.10
2022-08-11T13:13:53.917Z,27.90
2022-08-11T13:16:26.559Z,28.10
2022-08-11T13:18:54.315Z,27.80
2022-08-11T13:21:22.807Z,27.90
2022-08-11T13:24:01.819Z,28.20
2022-08-11T13:26:47.254Z,27.80
2022-08-11T13:29:25.211Z,27.20
2022-08-11T13:31:56.025Z,26.70
2022-08-11T13:34:25.533Z,26.70
2022-08-11T13:36:55.345Z,26.80
2022-08-11T13:39:26.902Z,26.70
2022-08-11T13:41:56.626Z,26.70
2022-08-11T13:44:27.495Z,26.50
2022-08-11T13:46:58.380Z,26.60
2022-08-11T13:49:26.796Z,26.50
2022-08-11T13:51:55.228Z,26.50
2022-08-11T13:54:30.008Z,26.30
2022-08-11T13:57:03.277Z,26.40
2022-08-11T13:59:43.994Z,26.50
2022-08-11T14:02:29.302Z,26.60
2022-08-11T14:05:08.203Z,26.80
2022-08-11T14:07:39.188Z,26.90
2022-08-11T14:10:08.975Z,27.10
2022-08-11T14:12:56.273Z,27.00
2022-08-11T14:15:27.845Z,27.00
2022-08-11T14:18:07.242Z,26.90
2022-08-11T14:21:00.678Z,27.00
2022-08-11T14:23:39.853Z,26.90
2022-08-11T14:26:24.213Z,26.70
2022-08-11T14:28:55.053Z,26.70
2022-08-11T14:31:28.112Z,26.70
2022-08-11T14:34:00.722Z,26.70
2022-08-11T14:36:40.635Z,26.60
2022-08-11T14:39:13.229Z,26.70
2022-08-11T14:42:10.344Z,26.80
2022-08-11T14:45:04.120Z,26.80
2022-08-11T14:47:34.263Z,26.70
2022-08-11T14:50:11.623Z,26.50
2022-08-11T14:53:09.163Z,26.50
2022-08-11T14:55:56.404Z,26.50
2022-08-11T14:58:25.991Z,26.50
2022-08-11T15:00:55.459Z,26.40
2022-08-11T15:03:28.262Z,26.30
2022-08-11T15:05:58.700Z,26.10
2022-08-11T15:08:52.214Z,26.10
2022-08-11T15:11:40.038Z,26.00
2022-08-11T15:14:09.758Z,25.90
2022-08-11T15:17:02.252Z,25.90
2022-08-11T15:19:37.506Z,25.90
2022-08-11T15:22:28.586Z,25.80
2022-08-11T15:24:58.087Z,25.80
2022-08-11T15:27:45.612Z,25.80
2022-08-11T15:30:33.858Z,25.80
2022-08-11T15:33:25.835Z,25.90
2022-08-11T15:36:13.239Z,25.80
2022-08-11T15:38:49.233Z,25.80
2022-08-11T15:41:58.518Z,25.70
2022-08-11T15:45:04.842Z,25.70
2022-08-11T15:47:58.410Z,25.70
2022-08-11T15:50:34.514Z,25.70
2022-08-11T15:53:05.866Z,25.80
2022-08-11T15:55:35.183Z,25.70
2022-08-11T15:58:24.514Z,25.70
2022-08-11T16:01:11.795Z,25.60
2022-08-11T16:04:13.722Z,25.60
2022-08-11T16:07:05.909Z,25.60
2022-08-11T16:09:47.591Z,25.60
2022-08-11T16:12:30.929Z,25.50
2022-08-11T16:15:28.129Z,25.50
2022-08-11T16:18:03.352Z,25.50
2022-08-11T16:20:31.789Z,25.50
2022-08-11T16:23:03.276Z,25.50
2022-08-11T16:27:01.924Z,25.60
2022-08-11T16:28:23.175Z,25.50
2022-08-11T16:30:51.758Z,25.50
2022-08-11T16:33:48.565Z,25.40
2022-08-11T16:36:29.097Z,25.30
2022-08-11T16:38:58.037Z,25.30
2022-08-11T16:41:47.153Z,25.40
2022-08-11T16:44:37.856Z,25.50
2022-08-11T16:47:11.992Z,25.50
2022-08-11T16:49:43.605Z,25.40
2022-08-11T16:52:20.243Z,25.30
2022-08-11T16:54:50.085Z,25.30
2022-08-11T16:57:45.636Z,25.20
2022-08-11T17:00:17.015Z,25.30
2022-08-11T17:03:10.959Z,25.30
2022-08-11T17:06:03.788Z,25.30
2022-08-11T17:08:56.908Z,25.10
2022-08-11T17:11:48.452Z,25.10
2022-08-11T17:14:35.276Z,25.10
2022-08-11T17:17:06.027Z,25.10
2022-08-11T17:20:42.019Z,25.10
2022-08-11T17:22:43.931Z,25.00
2022-08-11T17:25:11.796Z,25.00
2022-08-11T17:27:39.538Z,25.00
2022-08-11T17:30:08.470Z,25.00
2022-08-11T17:33:00.835Z,24.90
2022-08-11T17:35:38.631Z,24.90
2022-08-11T17:38:11.025Z,24.90
2022-08-11T17:41:01.383Z,24.90
2022-08-11T17:43:48.613Z,24.90
2022-08-11T17:46:35.402Z,24.70
2022-08-11T17:49:07.685Z,24.70
2022-08-11T17:51:54.406Z,24.70
2022-08-11T17:54:41.683Z,24.60
2022-08-11T17:57:29.027Z,24.60
2022-08-11T17:59:57.890Z,24.60
2022-08-11T18:02:57.975Z,24.50
2022-08-11T18:05:30.272Z,24.50
2022-08-11T18:08:19.655Z,24.50
2022-08-11T18:11:06.472Z,24.40
2022-08-11T18:13:59.309Z,24.40
2022-08-11T18:16:45.337Z,24.40
2022-08-11T18:19:31.254Z,24.30
2022-08-11T18:22:48.224Z,24.30
2022-08-11T18:25:42.058Z,24.20
2022-08-11T18:28:33.648Z,24.20
2022-08-11T18:31:22.202Z,24.20
2022-08-11T18:34:13.060Z,24.10
2022-08-11T18:37:06.591Z,24.10
2022-08-11T18:39:56.513Z,24.00
2022-08-11T18:42:45.790Z,24.00
2022-08-11T18:45:45.470Z,24.00
2022-08-11T18:48:35.910Z,23.90
2022-08-11T18:51:30.702Z,23.80
2022-08-11T18:54:26.522Z,23.80
2022-08-11T18:57:14.618Z,24.80
2022-08-11T19:00:02.382Z,24.20
2022-08-11T19:02:50.834Z,23.80
2022-08-11T19:06:35.621Z,23.70
2022-08-11T19:08:49.949Z,23.50
2022-08-11T19:11:42.710Z,23.40
2022-08-11T19:14:30.886Z,23.40
2022-08-11T19:17:45.125Z,23.30
2022-08-11T19:20:26.812Z,23.20
2022-08-11T19:23:13.994Z,23.20
2022-08-11T19:26:01.870Z,23.10
2022-08-11T19:28:48.337Z,23.20
2022-08-11T19:31:34.012Z,23.00
2022-08-11T19:34:20.771Z,23.00
2022-08-11T19:37:07.254Z,23.00
2022-08-11T19:39:54.107Z,22.80
2022-08-11T19:42:41.164Z,22.80
2022-08-11T19:45:27.740Z,22.90
2022-08-11T19:48:31.108Z,23.00
2022-08-11T19:51:19.262Z,22.80
2022-08-11T19:54:06.678Z,22.80
2022-08-11T19:56:53.264Z,22.70
2022-08-11T19:59:40.681Z,22.80
2022-08-11T20:02:26.038Z,22.70
2022-08-11T20:05:11.408Z,22.80
2022-08-11T20:07:57.176Z,22.70
2022-08-11T20:10:45.062Z,22.70
2022-08-11T20:13:32.525Z,22.70
2022-08-11T20:16:20.358Z,22.60
2022-08-11T20:19:08.617Z,22.60
2022-08-11T20:21:55.958Z,22.70
2022-08-11T20:24:41.801Z,22.60
2022-08-11T20:27:28.106Z,22.70
2022-08-11T20:30:15.574Z,22.60
2022-08-11T20:33:01.961Z,22.60
2022-08-11T20:35:49.898Z,22.50
2022-08-11T20:38:36.231Z,22.40
2022-08-11T20:41:22.525Z,22.60
2022-08-11T20:44:09.915Z,22.70
2022-08-11T20:46:59.584Z,22.60
2022-08-11T20:49:56.604Z,22.70
2022-08-11T20:52:48.649Z,22.80
2022-08-11T20:55:51.321Z,22.90
2022-08-11T20:59:13.259Z,22.70
2022-08-11T21:01:45.799Z,22.70
2022-08-11T21:04:32.514Z,22.70
2022-08-11T21:07:27.081Z,22.50
2022-08-11T21:10:23.728Z,22.30
2022-08-11T21:13:27.110Z,22.20
2022-08-11T21:16:26.187Z,22.20
2022-08-11T21:19:59.854Z,22.30
2022-08-11T21:22:38.915Z,22.30
2022-08-11T21:25:29.378Z,22.10
2022-08-11T21:28:20.927Z,22.10
2022-08-11T21:31:08.390Z,22.30
2022-08-11T21:33:55.755Z,22.40
2022-08-11T21:36:43.114Z,22.50
2022-08-11T21:39:32.229Z,22.50
2022-08-11T21:42:19.708Z,22.50
2022-08-11T21:45:07.282Z,22.40
2022-08-11T21:48:01.203Z,22.30
2022-08-11T21:50:47.937Z,22.30
2022-08-11T21:53:34.543Z,22.10
2022-08-11T21:56:20.758Z,22.00
2022-08-11T21:59:07.414Z,22.10
2022-08-11T22:01:53.974Z,22.00
2022-08-11T22:04:39.890Z,22.10
2022-08-11T22:07:26.099Z,22.20
2022-08-11T22:10:40.565Z,22.20
2022-08-11T22:13:17.405Z,22.20
2022-08-11T22:16:03.420Z,22.10
2022-08-11T22:18:50.181Z,21.90
2022-08-11T22:22:03.315Z,21.80
2022-08-11T22:24:43.314Z,21.70
2022-08-11T22:27:28.762Z,21.60
2022-08-11T22:30:14.195Z,21.50
2022-08-11T22:33:00.154Z,21.50
2022-08-11T22:35:46.402Z,21.60
2022-08-11T22:38:33.519Z,21.50
2022-08-11T22:41:21.143Z,21.30
2022-08-11T22:44:06.502Z,21.30
2022-08-11T22:46:53.384Z,21.10
2022-08-11T22:49:57.249Z,21.00
2022-08-11T22:52:44.861Z,21.00
2022-08-11T22:55:31.677Z,21.10
2022-08-11T22:58:17.445Z,21.10
2022-08-11T23:01:03.437Z,21.10
2022-08-11T23:03:50.425Z,20.90
2022-08-11T23:06:37.749Z,21.00
2022-08-11T23:09:26.727Z,20.90
2022-08-11T23:12:13.378Z,20.90
2022-08-11T23:15:00.313Z,20.90
2022-08-11T23:17:46.780Z,20.70
2022-08-11T23:20:39.148Z,20.60
2022-08-11T23:23:34.470Z,20.60
2022-08-11T23:26:20.960Z,20.60
2022-08-11T23:29:06.463Z,20.60
2022-08-11T23:31:55.051Z,20.60
2022-08-11T23:35:04.091Z,20.70
2022-08-11T23:37:53.873Z,20.60
2022-08-11T23:40:39.146Z,21.00
2022-08-11T23:43:25.691Z,21.00
2022-08-11T23:46:11.677Z,20.80
2022-08-11T23:48:57.998Z,20.80
2022-08-11T23:51:44.994Z,20.70
2022-08-11T23:54:36.901Z,20.70
2022-08-11T23:57:23.759Z,20.90
